Terminal Aerodrome Forecast
Issued by NWS

Home | Current Version | Previous Version | Text Only | Print | Product List | Glossary On
Versions: 1 2 3 4 5 6 7 8 9 10 11 12 13 14 15 16
000
FTUS44 KCRP 171735
TAFLRD
TAF
KLRD 171735Z 1718/1818 03003KT P6SM SCT015
     FM172100 07005KT P6SM VCSH OVC025
     FM180200 03005KT P6SM VCTS OVC015CB
      TEMPO 1802/1806 VRB15G25KT 3SM TSRA
     FM180800 34010KT 5SM BR VCSH OVC012=

USA.gov is the U.S. government's official web portal to all federal, state and local government web resources and services.